Time;durP1;ratioP1;P1;durP2;ratioP2;P2;SDS_P1;SDS_P2;PMS_P1;PMS_P2;Temp;Humidity;BMP_temperature;BMP_pressure;BME280_temperature;BME280_humidity;BME280_pressure;Samples;Min_cycle;Max_cycle;Signal;HPM_P1;HPM_P2
2022/05/07 00:00:38;;;;;;;6.67;3.37;;;26.40;99.90;;;;;;1868444;75;21726;-78
2022/05/07 00:03:09;;;;;;;6.20;2.80;;;26.30;99.90;;;;;;1859436;74;21111;-78
2022/05/07 00:05:40;;;;;;;6.00;2.85;;;26.20;99.90;;;;;;1826877;75;21744;-79
2022/05/07 00:08:12;;;;;;;6.70;2.70;;;26.40;99.90;;;;;;1860763;75;21639;-78
2022/05/07 00:10:43;;;;;;;5.22;2.40;;;26.30;99.90;;;;;;1862163;75;21594;-79
2022/05/07 00:13:14;;;;;;;3.22;2.10;;;26.40;99.90;;;;;;1889477;74;21224;-78
2022/05/07 00:18:01;;;;;;;5.45;2.17;;;26.30;99.90;;;;;;1851119;75;21157;-79
2022/05/07 00:18:17;;;;;;;3.65;2.40;;;26.30;99.90;;;;;;1861973;75;21157;-79
2022/05/07 00:20:48;;;;;;;2.67;2.08;;;26.50;99.90;;;;;;1855720;75;21201;-78
2022/05/07 00:23:19;;;;;;;5.10;2.55;;;26.40;99.90;;;;;;1870792;75;21485;-80
2022/05/07 00:25:49;;;;;;;4.20;2.30;;;26.40;99.90;;;;;;1846736;76;21260;-79
2022/05/07 00:28:20;;;;;;;4.70;3.02;;;26.50;99.90;;;;;;1863384;75;21195;-79
2022/05/07 00:30:51;;;;;;;4.92;3.22;;;26.50;99.90;;;;;;1843046;76;21239;-79
2022/05/07 00:33:22;;;;;;;7.83;5.37;;;26.60;99.90;;;;;;1851934;75;21626;-81
2022/05/07 00:35:53;;;;;;;5.40;4.30;;;26.60;99.90;;;;;;1845877;74;21154;-81
2022/05/07 00:38:25;;;;;;;6.97;3.60;;;26.50;99.90;;;;;;1837515;76;21759;-80
2022/05/07 00:40:56;;;;;;;6.47;3.90;;;26.60;99.90;;;;;;1843605;74;21212;-79
2022/05/07 00:43:30;;;;;;;5.67;3.58;;;26.70;99.90;;;;;;1860233;76;21690;-79
2022/05/07 00:46:01;;;;;;;5.35;3.52;;;26.80;99.90;;;;;;1868306;75;21225;-79
2022/05/07 00:48:32;;;;;;;7.10;3.08;;;26.70;99.90;;;;;;1837651;75;21147;-80
2022/05/07 00:53:38;;;;;;;5.47;3.40;;;26.80;99.90;;;;;;1842866;74;21645;-79
2022/05/07 00:56:12;;;;;;;6.78;3.00;;;26.90;99.90;;;;;;1853370;75;21224;-79
2022/05/07 00:58:44;;;;;;;6.92;4.17;;;26.90;99.90;;;;;;1810852;78;21211;-79
2022/05/07 01:01:14;;;;;;;5.30;3.42;;;26.90;99.90;;;;;;1780513;80;21138;-79
2022/05/07 01:03:49;;;;;;;8.00;4.45;;;26.90;99.90;;;;;;1824157;77;21588;-78
2022/05/07 01:06:21;;;;;;;5.58;3.20;;;27.00;99.90;;;;;;1848832;75;22583;-79
2022/05/07 01:08:52;;;;;;;8.83;3.75;;;27.00;99.90;;;;;;1877261;76;21165;-79
2022/05/07 01:11:23;;;;;;;6.37;3.05;;;27.10;99.90;;;;;;1856059;75;21176;-79
2022/05/07 01:13:54;;;;;;;4.17;2.60;;;27.00;99.90;;;;;;1847299;74;21240;-79
2022/05/07 01:16:25;;;;;;;4.08;2.80;;;27.10;99.90;;;;;;1844734;75;21600;-79
2022/05/07 01:18:56;;;;;;;4.80;2.67;;;27.20;99.90;;;;;;1849760;76;21720;-79
2022/05/07 01:21:28;;;;;;;6.58;2.50;;;27.10;99.90;;;;;;1832695;76;21154;-78
2022/05/07 01:24:02;;;;;;;4.78;3.15;;;27.10;99.90;;;;;;1840092;75;21088;-78
2022/05/07 01:26:32;;;;;;;4.65;2.87;;;27.10;99.90;;;;;;1822598;77;21115;-79
2022/05/07 01:29:03;;;;;;;5.30;2.85;;;27.10;99.90;;;;;;1850208;74;21174;-80
2022/05/07 01:31:34;;;;;;;6.15;3.98;;;27.30;99.90;;;;;;1863403;75;21213;-79
2022/05/07 01:34:05;;;;;;;4.40;3.10;;;27.20;99.90;;;;;;1870503;75;21202;-79
2022/05/07 01:36:39;;;;;;;7.60;3.70;;;27.30;99.90;;;;;;1846139;74;21223;-79
2022/05/07 01:39:10;;;;;;;5.50;3.75;;;27.30;99.90;;;;;;1843630;75;21146;-79
2022/05/07 01:41:41;;;;;;;4.90;3.83;;;27.50;99.90;;;;;;1847622;75;21240;-80
2022/05/07 01:44:12;;;;;;;7.97;4.17;;;27.50;99.90;;;;;;1823233;77;21246;-80
2022/05/07 01:49:15;;;;;;;7.33;4.20;;;27.70;99.90;;;;;;1843049;76;21264;-78
2022/05/07 01:51:46;;;;;;;5.85;3.65;;;27.80;99.90;;;;;;1873242;75;21285;-79
2022/05/07 01:54:17;;;;;;;5.03;3.42;;;27.70;99.90;;;;;;1868800;75;21224;-79
2022/05/07 01:56:48;;;;;;;5.53;3.10;;;27.80;99.90;;;;;;1866920;74;21885;-80
2022/05/07 01:59:19;;;;;;;6.97;4.08;;;27.80;99.90;;;;;;1857683;75;21104;-79
2022/05/07 02:01:50;;;;;;;7.92;5.12;;;27.80;99.90;;;;;;1865486;75;21207;-80
2022/05/07 02:04:21;;;;;;;6.95;4.72;;;27.90;99.90;;;;;;1861802;74;21181;-79
2022/05/07 02:06:52;;;;;;;4.10;3.37;;;27.90;99.90;;;;;;1877591;75;21567;-79
2022/05/07 02:09:24;;;;;;;4.58;3.20;;;28.20;99.90;;;;;;1873739;75;21221;-80
2022/05/07 02:11:55;;;;;;;4.90;2.90;;;28.20;99.90;;;;;;1865353;74;21126;-79
2022/05/07 02:14:26;;;;;;;4.30;3.35;;;28.10;99.90;;;;;;1867218;74;21799;-79
2022/05/07 02:16:57;;;;;;;11.15;4.08;;;28.30;99.90;;;;;;1867543;74;21129;-80
2022/05/07 02:19:29;;;;;;;4.90;3.30;;;28.30;99.90;;;;;;1852461;75;21187;-79
2022/05/07 02:22:00;;;;;;;6.20;3.30;;;28.20;99.90;;;;;;1854334;74;21147;-81
2022/05/07 02:24:31;;;;;;;4.35;2.95;;;28.30;99.90;;;;;;1866294;74;21130;-79
2022/05/07 02:27:06;;;;;;;;;;;28.20;99.90;;;;;;1864575;75;21071;-79
2022/05/07 02:29:37;;;;;;;6.15;3.22;;;28.30;99.90;;;;;;1850117;75;20199;-79
2022/05/07 02:32:13;;;;;;;5.55;3.52;;;28.30;99.90;;;;;;1850978;76;21214;-79
2022/05/07 02:34:41;;;;;;;4.80;3.52;;;28.40;99.90;;;;;;1869615;75;21135;-79
2022/05/07 02:37:13;;;;;;;7.50;3.85;;;28.50;99.90;;;;;;1883294;73;21194;-80
2022/05/07 02:39:44;;;;;;;6.35;3.17;;;28.80;99.90;;;;;;1879620;74;21202;-80
2022/05/07 02:44:47;;;;;;;5.00;3.02;;;28.70;99.90;;;;;;1837059;75;21170;-79
2022/05/07 02:47:18;;;;;;;4.70;3.45;;;28.80;99.90;;;;;;1868166;75;21122;-79
2022/05/07 02:49:49;;;;;;;4.87;3.08;;;28.80;98.70;;;;;;1848213;75;21146;-78
2022/05/07 02:52:21;;;;;;;3.42;2.70;;;29.10;98.40;;;;;;1843614;75;21208;-78
2022/05/07 02:54:52;;;;;;;4.10;2.50;;;29.20;98.50;;;;;;1853498;75;21134;-80
2022/05/07 02:57:23;;;;;;;3.80;2.67;;;29.40;97.80;;;;;;1869669;75;21472;-80
2022/05/07 02:59:54;;;;;;;5.80;3.37;;;29.50;97.20;;;;;;1857800;75;21146;-79
2022/05/07 03:02:25;;;;;;;4.05;2.80;;;29.70;98.20;;;;;;1862627;76;21621;-79
2022/05/07 03:04:57;;;;;;;3.98;2.67;;;30.00;99.90;;;;;;1852942;75;21097;-79
2022/05/07 03:07:28;;;;;;;4.05;2.85;;;;;;;;;;1858580;75;21197;-86
2022/05/07 03:10:00;;;;;;;4.87;3.27;;;30.00;99.90;;;;;;1873226;75;21079;-79
2022/05/07 03:12:31;;;;;;;3.92;3.10;;;30.20;99.90;;;;;;1848941;75;21194;-78
2022/05/07 03:15:02;;;;;;;5.35;3.17;;;29.90;99.90;;;;;;1812689;77;21190;-79
2022/05/07 03:17:34;;;;;;;3.50;2.80;;;30.10;99.90;;;;;;1860594;75;21103;-80
2022/05/07 03:20:09;;;;;;;4.97;2.95;;;29.90;99.90;;;;;;1872924;74;21229;-79
2022/05/07 03:22:39;;;;;;;4.20;3.00;;;30.00;99.90;;;;;;1861688;75;21600;-79
2022/05/07 03:25:10;;;;;;;4.22;3.20;;;30.00;99.90;;;;;;1885907;75;21638;-78
2022/05/07 03:27:41;;;;;;;5.85;2.92;;;30.00;99.90;;;;;;1896950;74;21068;-79
2022/05/07 03:30:13;;;;;;;5.17;3.00;;;29.90;99.90;;;;;;1888556;75;21159;-78
2022/05/07 03:32:43;;;;;;;7.08;3.22;;;30.10;99.90;;;;;;1868261;74;21171;-80
2022/05/07 03:35:14;;;;;;;7.08;3.47;;;30.00;99.90;;;;;;1858631;74;21614;-80
2022/05/07 03:37:45;;;;;;;4.33;3.10;;;30.00;99.90;;;;;;1868286;74;21127;-80
2022/05/07 03:40:16;;;;;;;6.55;2.72;;;30.00;99.90;;;;;;1869624;74;21145;-80
2022/05/07 03:42:47;;;;;;;8.15;3.60;;;30.00;99.90;;;;;;1845218;76;21170;-81
2022/05/07 03:45:18;;;;;;;5.58;4.00;;;30.00;99.90;;;;;;1842448;75;21091;-80
2022/05/07 03:47:49;;;;;;;6.37;4.15;;;30.20;99.90;;;;;;1867515;75;21159;-80
2022/05/07 03:50:20;;;;;;;6.15;3.80;;;30.00;99.90;;;;;;1856313;75;21143;-79
2022/05/07 03:55:23;;;;;;;6.53;3.60;;;30.30;99.90;;;;;;1848361;75;21212;-79
2022/05/07 03:57:54;;;;;;;5.45;3.52;;;30.20;99.90;;;;;;1858789;74;21652;-79
2022/05/07 04:00:26;;;;;;;4.80;3.08;;;30.30;91.70;;;;;;1848200;75;21239;-79
2022/05/07 04:02:59;;;;;;;6.53;3.77;;;30.20;92.00;;;;;;1863794;76;21127;-79
2022/05/07 04:05:30;;;;;;;8.55;4.20;;;30.30;92.00;;;;;;1844552;76;21170;-81
2022/05/07 04:08:00;;;;;;;5.75;3.60;;;30.20;91.90;;;;;;1868715;75;21145;-80
2022/05/07 04:10:31;;;;;;;5.80;4.03;;;30.30;92.00;;;;;;1857784;75;21133;-79
2022/05/07 04:13:02;;;;;;;5.92;4.05;;;30.20;92.00;;;;;;1845368;76;21150;-79
2022/05/07 04:15:33;;;;;;;5.17;3.70;;;30.20;92.00;;;;;;1862925;76;21448;-80
2022/05/07 04:18:06;;;;;;;4.30;3.58;;;30.10;91.80;;;;;;1823346;77;21182;-79
2022/05/07 04:20:39;;;;;;;4.90;3.60;;;30.10;92.00;;;;;;1871177;74;21115;-79
2022/05/07 04:23:10;;;;;;;5.55;4.05;;;30.00;91.50;;;;;;1861318;74;21172;-79
2022/05/07 04:25:42;;;;;;;5.67;3.80;;;30.00;92.10;;;;;;1851982;75;21123;-79
2022/05/07 04:28:13;;;;;;;6.35;4.45;;;30.00;91.90;;;;;;1855186;76;21178;-79
2022/05/07 04:30:44;;;;;;;6.78;3.98;;;30.00;91.70;;;;;;1850061;76;21142;-78
2022/05/07 04:33:16;;;;;;;6.45;3.92;;;30.00;91.70;;;;;;1860398;75;21519;-78
2022/05/07 04:35:49;;;;;;;6.35;3.92;;;30.00;91.60;;;;;;1858669;75;21137;-79
2022/05/07 04:38:19;;;;;;;6.78;3.65;;;30.10;91.60;;;;;;1872027;74;21248;-78
2022/05/07 04:40:50;;;;;;;4.87;3.87;;;30.10;91.70;;;;;;1865233;75;21198;-79
2022/05/07 04:43:21;;;;;;;4.17;3.70;;;30.00;91.30;;;;;;1836817;76;21107;-79
2022/05/07 04:45:52;;;;;;;5.55;4.22;;;30.00;91.20;;;;;;1849016;74;21266;-79
2022/05/07 04:48:24;;;;;;;4.58;3.67;;;30.10;91.20;;;;;;1848983;75;21560;-78
2022/05/07 04:50:55;;;;;;;7.42;4.03;;;30.20;91.00;;;;;;1870323;75;21159;-78
2022/05/07 04:53:27;;;;;;;7.42;4.28;;;30.30;91.10;;;;;;1850290;75;21118;-78
2022/05/07 04:55:58;;;;;;;8.25;4.80;;;30.50;92.20;;;;;;1867749;75;21674;-78
2022/05/07 04:58:28;;;;;;;7.00;5.25;;;30.70;92.00;;;;;;1848543;75;21531;-79
2022/05/07 05:00:59;;;;;;;7.37;5.33;;;30.80;93.80;;;;;;1853148;75;21153;-79
2022/05/07 05:03:30;;;;;;;7.42;5.58;;;30.70;94.20;;;;;;1854213;76;21123;-78
2022/05/07 05:06:01;;;;;;;8.60;6.25;;;30.90;98.00;;;;;;1861612;75;21648;-80
2022/05/07 05:08:32;;;;;;;9.10;6.53;;;31.00;89.50;;;;;;1852321;75;21127;-80
2022/05/07 05:11:03;;;;;;;10.00;6.53;;;31.10;89.60;;;;;;1855768;75;21149;-80
2022/05/07 05:13:34;;;;;;;6.55;4.97;;;31.10;89.70;;;;;;1850145;75;21226;-80
2022/05/07 05:16:08;;;;;;;8.55;5.97;;;31.20;88.10;;;;;;1880918;76;21100;-80
2022/05/07 05:18:39;;;;;;;8.38;5.60;;;31.30;87.80;;;;;;1877786;75;21100;-79
2022/05/07 05:21:10;;;;;;;9.95;6.97;;;31.40;87.90;;;;;;1864680;75;21555;-79
2022/05/07 05:23:41;;;;;;;11.30;6.00;;;31.40;87.80;;;;;;1866346;75;21525;-79
2022/05/07 05:26:12;;;;;;;6.83;5.53;;;31.60;86.90;;;;;;1849801;75;21720;-80
2022/05/07 05:28:45;;;;;;;7.03;5.50;;;31.80;85.80;;;;;;1848143;75;21151;-80
2022/05/07 05:31:16;;;;;;;8.28;6.20;;;32.00;85.10;;;;;;1854671;75;22132;-79
2022/05/07 05:33:47;;;;;;;8.18;5.35;;;32.20;85.00;;;;;;1854814;75;21140;-80
2022/05/07 05:36:21;;;;;;;6.20;4.33;;;32.30;83.60;;;;;;1888598;74;21147;-80
2022/05/07 05:38:52;;;;;;;5.65;4.80;;;32.40;81.60;;;;;;1870573;75;21260;-79
2022/05/07 05:41:23;;;;;;;9.10;5.83;;;32.40;82.60;;;;;;1858909;74;21143;-79
2022/05/07 05:43:53;;;;;;;7.60;5.10;;;32.40;82.60;;;;;;1860452;75;21669;-78
2022/05/07 05:46:24;;;;;;;7.12;5.58;;;32.50;82.80;;;;;;1864286;75;21185;-78
2022/05/07 05:48:55;;;;;;;8.98;6.37;;;32.50;82.30;;;;;;1845903;76;21585;-79
2022/05/07 05:51:26;;;;;;;8.83;6.37;;;32.40;82.20;;;;;;1794378;77;21218;-79
2022/05/07 05:53:57;;;;;;;8.33;6.20;;;32.30;82.10;;;;;;1811436;77;21245;-78
2022/05/07 05:56:29;;;;;;;11.15;6.08;;;32.40;83.20;;;;;;1860544;75;21708;-80
2022/05/07 05:58:59;;;;;;;8.05;5.33;;;32.40;83.20;;;;;;1875212;75;21986;-81
2022/05/07 06:01:30;;;;;;;7.85;5.17;;;32.40;82.10;;;;;;1858161;74;21676;-82
2022/05/07 06:04:01;;;;;;;6.83;4.30;;;32.50;81.90;;;;;;1847189;77;21227;-84
2022/05/07 06:06:34;;;;;;;6.25;4.20;;;32.60;80.10;;;;;;1779104;79;21295;-85
2022/05/07 06:09:05;;;;;;;6.20;4.95;;;32.70;79.30;;;;;;1864171;74;21551;-85
2022/05/07 06:11:37;;;;;;;5.65;4.20;;;32.70;79.70;;;;;;1814842;77;21109;-82
2022/05/07 06:14:09;;;;;;;5.80;4.47;;;32.60;78.60;;;;;;1862975;74;21632;-85
2022/05/07 06:16:41;;;;;;;7.50;5.72;;;32.50;79.70;;;;;;1849051;75;21155;-85
2022/05/07 06:19:12;;;;;;;10.32;6.70;;;32.30;80.00;;;;;;1850926;75;21198;-85
2022/05/07 06:21:43;;;;;;;11.85;7.40;;;32.30;81.60;;;;;;1857753;75;21747;-84
2022/05/07 06:29:17;;;;;;;8.85;6.37;;;32.20;82.10;;;;;;1855381;76;21818;-79
2022/05/07 06:31:48;;;;;;;8.75;7.30;;;32.20;80.40;;;;;;1854275;75;21161;-78
2022/05/07 06:34:22;;;;;;;9.85;7.12;;;32.20;80.90;;;;;;1871589;74;21558;-80
2022/05/07 06:36:54;;;;;;;9.83;7.80;;;32.10;80.40;;;;;;1876743;76;21511;-82
2022/05/07 06:39:25;;;;;;;10.45;8.33;;;32.10;81.30;;;;;;1856721;76;21095;-81
2022/05/07 06:41:57;;;;;;;9.90;6.78;;;32.10;81.60;;;;;;1855383;76;21683;-82
2022/05/07 06:44:28;;;;;;;10.32;8.38;;;32.00;80.80;;;;;;1869192;76;21614;-81
2022/05/07 06:46:59;;;;;;;9.48;7.80;;;32.00;80.40;;;;;;1843053;76;21166;-82
2022/05/07 06:49:30;;;;;;;9.45;7.05;;;32.00;81.30;;;;;;1848869;74;21166;-81
2022/05/07 06:52:01;;;;;;;8.58;6.47;;;31.90;81.10;;;;;;1812282;79;21135;-82
2022/05/07 06:54:32;;;;;;;8.53;5.90;;;31.90;80.90;;;;;;1854619;76;21891;-82
2022/05/07 06:57:03;;;;;;;7.37;6.50;;;31.90;81.30;;;;;;1838524;75;21709;-84
2022/05/07 06:59:36;;;;;;;7.40;5.72;;;31.90;81.00;;;;;;1866569;75;21063;-83
2022/05/07 07:02:08;;;;;;;9.15;6.33;;;31.90;81.40;;;;;;1853219;75;21732;-82
2022/05/07 07:04:39;;;;;;;11.75;6.60;;;32.00;81.10;;;;;;1867134;75;21594;-82
2022/05/07 07:07:10;;;;;;;7.65;5.92;;;32.00;81.30;;;;;;1843682;75;21583;-80
2022/05/07 07:09:40;;;;;;;8.58;6.03;;;32.10;81.20;;;;;;1859332;75;21158;-81
2022/05/07 07:12:11;;;;;;;10.03;7.47;;;32.20;81.40;;;;;;1880141;75;21712;-81
2022/05/07 07:14:43;;;;;;;9.45;6.10;;;32.20;80.70;;;;;;1865810;76;21565;-80
2022/05/07 07:17:16;;;;;;;9.33;7.03;;;32.20;80.30;;;;;;1852902;75;21142;-81
2022/05/07 07:19:47;;;;;;;9.23;5.90;;;32.10;80.60;;;;;;1852940;77;21098;-81
2022/05/07 07:22:18;;;;;;;8.58;6.60;;;32.10;79.90;;;;;;1853986;75;21234;-81
2022/05/07 07:24:49;;;;;;;7.92;6.92;;;32.00;81.00;;;;;;1859261;76;21091;-79
2022/05/07 07:27:21;;;;;;;9.50;6.95;;;32.00;81.40;;;;;;1843205;75;21174;-80
2022/05/07 07:29:52;;;;;;;9.70;6.80;;;32.00;81.70;;;;;;1863776;76;21147;-81
2022/05/07 07:32:25;;;;;;;6.62;5.20;;;32.00;81.20;;;;;;1854773;75;21658;-80
2022/05/07 07:34:55;;;;;;;7.50;5.70;;;32.00;80.80;;;;;;1865435;75;21820;-83
2022/05/07 07:37:28;;;;;;;7.70;6.30;;;32.00;80.50;;;;;;1874153;76;21649;-80
2022/05/07 07:40:00;;;;;;;9.78;6.75;;;32.00;81.40;;;;;;1860885;74;21112;-81
2022/05/07 07:42:31;;;;;;;8.20;5.95;;;32.10;81.30;;;;;;1862964;76;21096;-80
2022/05/07 07:50:08;;;;;;;7.47;6.67;;;32.10;81.40;;;;;;1852723;76;21137;-79
2022/05/07 07:52:38;;;;;;;9.30;6.17;;;32.10;80.80;;;;;;1853897;75;21169;-80
2022/05/07 07:55:10;;;;;;;13.08;6.47;;;32.10;80.90;;;;;;1877903;75;21068;-79
2022/05/07 07:57:41;;;;;;;8.33;5.92;;;32.20;81.10;;;;;;1861097;75;21756;-79
2022/05/07 08:00:15;;;;;;;9.33;6.83;;;32.20;81.00;;;;;;1859591;74;21226;-80
2022/05/07 08:02:48;;;;;;;10.38;6.33;;;32.30;81.60;;;;;;1856652;75;21138;-78
2022/05/07 08:05:22;;;;;;;8.88;6.15;;;32.20;80.90;;;;;;1859936;75;21102;-80
2022/05/07 08:12:58;;;;;;;10.93;7.45;;;32.00;83.20;;;;;;1878442;74;21646;-79
2022/05/07 08:15:29;;;;;;;13.58;7.65;;;32.00;82.60;;;;;;1845297;76;21125;-79
2022/05/07 08:18:00;;;;;;;14.73;9.20;;;32.00;82.40;;;;;;1842096;74;21919;-80
2022/05/07 08:20:31;;;;;;;12.30;8.48;;;32.00;82.70;;;;;;1859180;75;21111;-79
2022/05/07 08:23:02;;;;;;;11.75;8.05;;;32.10;82.80;;;;;;1884473;75;21576;-80
2022/05/07 08:25:33;;;;;;;10.60;7.83;;;32.10;82.70;;;;;;1869105;75;21714;-79
2022/05/07 08:28:05;;;;;;;9.85;7.30;;;32.10;81.90;;;;;;1852145;75;21185;-79
2022/05/07 08:30:39;;;;;;;9.23;7.42;;;32.10;81.80;;;;;;1846850;77;21972;-79
2022/05/07 08:33:08;;;;;;;8.38;7.33;;;32.00;82.30;;;;;;1857922;76;21664;-79
2022/05/07 08:35:40;;;;;;;11.55;7.20;;;31.90;82.90;;;;;;1853141;75;21096;-79
2022/05/07 08:38:10;;;;;;;7.87;6.72;;;31.80;82.20;;;;;;1850684;76;21137;-79
2022/05/07 08:40:42;;;;;;;9.18;7.37;;;31.80;82.60;;;;;;1863464;75;21158;-79
2022/05/07 08:43:14;;;;;;;9.53;6.80;;;31.70;82.90;;;;;;1844659;76;21743;-83
2022/05/07 08:45:45;;;;;;;10.75;7.97;;;31.70;83.00;;;;;;1860567;74;21199;-78
2022/05/07 08:48:19;;;;;;;9.03;6.35;;;31.70;83.20;;;;;;1851365;75;21225;-78
2022/05/07 08:50:56;;;;;;;7.40;6.20;;;31.70;83.20;;;;;;1863901;75;21577;-80
2022/05/07 08:53:30;;;;;;;8.43;6.65;;;31.70;83.20;;;;;;1870188;75;21137;-81
2022/05/07 08:56:03;;;;;;;8.75;6.45;;;31.70;83.00;;;;;;1860253;75;21104;-80
2022/05/07 08:58:34;;;;;;;11.20;6.72;;;31.70;83.10;;;;;;1857684;76;21134;-79
2022/05/07 09:01:06;;;;;;;8.70;6.53;;;31.60;83.00;;;;;;1847385;76;21186;-79
2022/05/07 09:03:42;;;;;;;8.88;6.08;;;31.70;82.50;;;;;;1858382;76;21161;-79
2022/05/07 09:06:16;;;;;;;8.70;6.65;;;31.70;81.90;;;;;;1859665;75;21696;-79
2022/05/07 09:08:49;;;;;;;7.33;6.08;;;31.70;82.00;;;;;;1844841;75;21215;-79
2022/05/07 09:11:21;;;;;;;10.32;6.35;;;31.70;82.00;;;;;;1849891;76;21194;-81
2022/05/07 09:13:54;;;;;;;8.35;5.97;;;31.70;81.90;;;;;;1857268;76;21225;-80
2022/05/07 09:16:25;;;;;;;13.48;6.15;;;31.60;82.90;;;;;;1851760;74;21134;-78
2022/05/07 09:18:57;;;;;;;6.70;5.42;;;31.60;82.50;;;;;;1871184;76;21232;-79
2022/05/07 09:21:32;;;;;;;9.08;5.33;;;31.60;82.60;;;;;;1874435;76;21686;-79
2022/05/07 09:24:06;;;;;;;9.30;5.78;;;31.50;82.10;;;;;;1871874;74;21086;-80
2022/05/07 09:26:40;;;;;;;6.97;5.30;;;31.50;82.10;;;;;;1869214;75;21613;-79
2022/05/07 09:29:13;;;;;;;9.63;6.05;;;31.50;81.80;;;;;;1868393;76;21148;-79
2022/05/07 09:31:46;;;;;;;7.05;4.97;;;31.50;82.00;;;;;;1805270;78;22305;-80
2022/05/07 09:36:55;;;;;;;7.25;6.10;;;31.40;82.80;;;;;;1854335;75;21694;-81
2022/05/07 09:39:28;;;;;;;11.90;6.83;;;31.50;82.40;;;;;;1783753;78;21835;-80
2022/05/07 09:42:03;;;;;;;9.50;7.70;;;31.40;82.20;;;;;;1822941;78;21178;-80
2022/05/07 09:44:34;;;;;;;10.38;7.75;;;31.40;82.30;;;;;;1815003;78;21134;-80
2022/05/07 09:47:06;;;;;;;11.73;8.43;;;31.40;82.30;;;;;;1811131;79;21160;-80
2022/05/07 09:50:19;;;;;;;11.35;8.83;;;31.40;82.70;;;;;;1792964;79;21731;-80
2022/05/07 09:52:11;;;;;;;10.43;8.28;;;31.40;82.90;;;;;;1810818;78;22420;-79
2022/05/07 09:59:50;;;;;;;14.50;12.00;;;31.40;83.40;;;;;;1856888;76;21174;-78
2022/05/07 10:02:21;;;;;;;16.12;11.80;;;31.40;83.40;;;;;;1859339;76;21604;-78
2022/05/07 10:04:58;;;;;;;15.70;10.82;;;31.40;83.60;;;;;;1856145;75;21096;-79
2022/05/07 10:07:32;;;;;;;14.65;10.23;;;31.40;83.70;;;;;;1862186;75;21608;-79
2022/05/07 10:10:06;;;;;;;13.62;10.72;;;31.40;84.10;;;;;;1851414;75;21626;-77
2022/05/07 10:12:38;;;;;;;15.03;9.18;;;31.30;84.30;;;;;;1860860;74;21295;-76
2022/05/07 10:15:12;;;;;;;13.28;9.35;;;31.30;84.60;;;;;;1862411;75;21163;-78
2022/05/07 10:17:45;;;;;;;8.20;6.03;;;31.30;84.80;;;;;;1853873;75;21641;-78
2022/05/07 10:20:18;;;;;;;9.85;5.60;;;31.30;85.60;;;;;;1871845;74;21139;-79
2022/05/07 10:22:52;;;;;;;8.23;6.03;;;31.30;86.50;;;;;;1866344;74;21091;-78
2022/05/07 10:25:22;;;;;;;8.65;6.50;;;31.20;86.70;;;;;;1875475;75;21512;-80
2022/05/07 10:27:53;;;;;;;9.10;6.05;;;31.10;87.50;;;;;;1874451;76;21139;-80
2022/05/07 10:30:25;;;;;;;11.08;6.08;;;31.00;87.70;;;;;;1859214;75;21232;-80
2022/05/07 10:33:02;;;;;;;10.25;5.87;;;30.90;88.40;;;;;;1842618;76;21135;-82
2022/05/07 10:35:53;;;;;;;8.85;5.90;;;30.70;88.80;;;;;;1853797;74;21672;-80
2022/05/07 10:38:27;;;;;;;9.08;6.33;;;30.60;89.20;;;;;;1903214;74;21611;-80
2022/05/07 10:41:01;;;;;;;10.03;5.47;;;30.50;89.30;;;;;;1888142;75;21150;-80
2022/05/07 10:43:35;;;;;;;8.98;5.17;;;30.40;89.00;;;;;;1899862;74;21488;-80
2022/05/07 10:46:08;;;;;;;7.20;5.00;;;30.40;89.00;;;;;;1856099;76;21170;-80
2022/05/07 10:48:43;;;;;;;8.00;5.35;;;30.30;89.40;;;;;;1886059;74;21135;-81
2022/05/07 10:51:17;;;;;;;6.53;4.33;;;30.30;89.60;;;;;;1863312;74;21763;-79
2022/05/07 10:53:51;;;;;;;9.05;4.28;;;30.20;88.10;;;;;;1855691;74;21205;-80
2022/05/07 10:56:24;;;;;;;6.08;4.40;;;30.10;88.00;;;;;;1861476;75;21212;-80
2022/05/07 10:59:00;;;;;;;9.10;3.83;;;30.10;88.00;;;;;;1839399;77;21083;-79
2022/05/07 11:01:31;;;;;;;7.67;4.17;;;30.10;87.40;;;;;;1857284;77;21115;-79
2022/05/07 11:04:04;;;;;;;6.45;3.58;;;30.00;87.30;;;;;;1871313;74;21126;-79
2022/05/07 11:06:43;;;;;;;4.75;3.58;;;30.00;87.20;;;;;;1892542;74;21622;-81
2022/05/07 11:09:15;;;;;;;7.17;3.20;;;30.00;87.10;;;;;;1887207;75;21138;-82
2022/05/07 11:11:52;;;;;;;5.53;3.72;;;30.00;86.10;;;;;;1877821;75;21155;-82
2022/05/07 11:14:26;;;;;;;4.70;3.25;;;29.90;86.30;;;;;;1869585;76;21543;-80
2022/05/07 11:16:58;;;;;;;4.62;2.83;;;29.90;86.10;;;;;;1872600;73;21088;-81
2022/05/07 11:19:28;;;;;;;6.00;3.50;;;29.90;85.70;;;;;;1858674;74;21154;-81
2022/05/07 11:22:00;;;;;;;6.72;3.58;;;29.90;86.30;;;;;;1852176;76;21126;-81
2022/05/07 11:24:33;;;;;;;5.47;3.40;;;29.80;86.10;;;;;;1871938;74;21092;-80
2022/05/07 11:27:18;;;;;;;6.35;3.58;;;29.80;86.50;;;;;;1848742;76;21189;-81
2022/05/07 11:29:51;;;;;;;8.53;3.60;;;29.80;86.00;;;;;;1860560;75;21170;-80
2022/05/07 11:32:34;;;;;;;8.58;3.80;;;29.80;85.70;;;;;;1885106;75;21198;-82
2022/05/07 11:35:10;;;;;;;7.30;3.33;;;29.80;85.30;;;;;;1854748;75;21178;-83
2022/05/07 11:37:43;;;;;;;6.83;3.70;;;29.80;85.30;;;;;;1843251;76;21244;-81
2022/05/07 11:40:15;;;;;;;5.45;3.75;;;29.80;85.30;;;;;;1865548;75;21143;-81
2022/05/07 11:42:49;;;;;;;7.95;4.10;;;29.80;85.40;;;;;;1865711;75;21240;-81
2022/05/07 11:45:27;;;;;;;8.58;4.12;;;29.70;85.60;;;;;;1859434;75;21641;-81
2022/05/07 11:48:00;;;;;;;10.30;4.35;;;29.70;85.90;;;;;;1866370;76;21618;-80
2022/05/07 11:50:39;;;;;;;4.83;3.12;;;29.70;86.30;;;;;;1876766;74;21627;-81
2022/05/07 11:53:09;;;;;;;8.78;4.00;;;29.60;86.30;;;;;;1893161;74;21241;-82
2022/05/07 11:55:40;;;;;;;7.55;3.80;;;29.60;86.90;;;;;;1885793;74;21159;-82
2022/05/07 11:58:23;;;;;;;7.67;3.90;;;29.60;87.30;;;;;;1891275;74;21187;-80
2022/05/07 12:00:48;;;;;;;6.55;3.45;;;29.60;88.00;;;;;;1849301;76;21249;-81
2022/05/07 12:03:21;;;;;;;7.45;4.00;;;29.50;88.30;;;;;;1840382;76;21155;-81
2022/05/07 12:05:55;;;;;;;7.42;4.08;;;29.50;88.90;;;;;;1842306;76;21086;-82
2022/05/07 12:08:28;;;;;;;9.03;4.92;;;29.50;89.30;;;;;;1842078;76;21190;-81
2022/05/07 12:10:59;;;;;;;8.35;5.67;;;29.50;90.00;;;;;;1845982;76;21259;-81
2022/05/07 12:13:32;;;;;;;7.80;5.40;;;29.50;90.20;;;;;;1846801;76;21080;-82
2022/05/07 12:18:36;;;;;;;7.75;4.78;;;29.40;90.30;;;;;;1841967;76;21119;-83
2022/05/07 12:21:08;;;;;;;7.03;5.33;;;29.40;90.30;;;;;;1850556;76;21171;-81
2022/05/07 12:31:19;;;;;;;10.32;5.97;;;29.30;90.60;;;;;;1853813;75;21187;-82
2022/05/07 12:33:51;;;;;;;7.58;5.15;;;29.20;90.50;;;;;;1849665;76;21187;-82
2022/05/07 12:36:23;;;;;;;7.62;5.05;;;29.20;90.50;;;;;;1840095;76;21767;-81
2022/05/07 12:38:59;;;;;;;9.75;5.62;;;29.30;90.60;;;;;;1850097;76;21233;-82
2022/05/07 12:41:28;;;;;;;7.97;5.10;;;29.20;90.50;;;;;;1860911;76;21729;-81
2022/05/07 12:44:00;;;;;;;7.92;4.92;;;29.20;90.50;;;;;;1837295;76;21154;-82
2022/05/07 12:46:31;;;;;;;8.55;5.30;;;29.20;90.50;;;;;;1844039;76;21134;-82
2022/05/07 12:49:02;;;;;;;8.43;5.80;;;29.20;90.90;;;;;;1851428;76;21344;-81
2022/05/07 12:51:35;;;;;;;9.35;5.62;;;29.20;90.60;;;;;;1849014;76;21173;-81
2022/05/07 12:54:06;;;;;;;9.98;6.10;;;29.20;90.70;;;;;;1835484;76;21126;-81
2022/05/07 12:56:38;;;;;;;12.90;6.40;;;29.20;90.80;;;;;;1823028;75;21194;-81
2022/05/07 12:59:09;;;;;;;8.08;5.62;;;29.20;90.90;;;;;;1865050;75;21188;-81
2022/05/07 13:01:40;;;;;;;8.30;6.08;;;29.20;91.10;;;;;;1861527;76;21178;-82
2022/05/07 13:04:17;;;;;;;8.65;6.15;;;29.20;91.30;;;;;;1858032;75;21165;-82
2022/05/07 13:06:44;;;;;;;11.30;6.22;;;29.20;91.40;;;;;;1850341;76;21175;-82
2022/05/07 13:09:15;;;;;;;8.73;5.70;;;29.20;91.40;;;;;;1859319;76;21101;-81
2022/05/07 13:11:48;;;;;;;10.50;6.53;;;29.20;91.50;;;;;;1842535;76;21394;-81
2022/05/07 13:14:27;;;;;;;8.48;6.15;;;29.20;91.80;;;;;;1840650;75;22059;-81
2022/05/07 13:16:58;;;;;;;8.23;6.25;;;29.10;91.90;;;;;;1843414;76;21667;-82
2022/05/07 13:19:30;;;;;;;9.60;6.03;;;29.10;91.90;;;;;;1839308;75;21238;-83
2022/05/07 13:22:01;;;;;;;9.70;6.55;;;29.10;92.00;;;;;;1853829;75;21329;-83
2022/05/07 13:24:32;;;;;;;8.83;6.83;;;29.10;92.20;;;;;;1852517;76;21101;-82
2022/05/07 13:27:03;;;;;;;11.65;6.25;;;29.10;92.20;;;;;;1839230;76;21182;-83
2022/05/07 13:29:34;;;;;;;13.90;7.28;;;29.00;92.20;;;;;;1831842;78;21229;-82
2022/05/07 13:32:05;;;;;;;9.75;6.80;;;29.10;92.40;;;;;;1807796;78;21141;-82
2022/05/07 13:34:36;;;;;;;9.03;6.85;;;29.00;92.40;;;;;;1837341;75;21151;-81
2022/05/07 13:37:07;;;;;;;13.78;7.62;;;29.00;92.40;;;;;;1862689;76;21175;-82
2022/05/07 13:39:38;;;;;;;13.22;8.28;;;29.10;92.60;;;;;;1844246;76;21715;-82
2022/05/07 13:42:13;;;;;;;10.65;7.70;;;29.10;92.70;;;;;;1828163;76;22519;-82
2022/05/07 13:44:43;;;;;;;10.70;6.83;;;29.10;92.80;;;;;;1862186;75;21213;-80
2022/05/07 13:47:14;;;;;;;10.75;7.20;;;29.00;92.80;;;;;;1864071;75;21170;-82
2022/05/07 13:49:45;;;;;;;12.50;6.65;;;29.00;92.70;;;;;;1847975;76;21147;-82
2022/05/07 13:52:15;;;;;;;13.05;6.85;;;29.00;92.80;;;;;;1834316;76;21701;-82